Ευχαριστούμε που συμβάλλετε στη διατήρηση της σελίδας μας.

Thank you for your donations, it really helps to maintain the page.


Meteo Stats And More









Fire Weather Index (FWI)

Kastelokampos Rion more information Kastelokampos Rion


Romanos Cam more information Romanos Cam


Thunder radar more information blitzortung!


Rain radar more information rain snow radar


Visit our other weather sites:

Meteopatras.Eu in
Euweather NetworkMeteopatras.Eu in Euweather Network

Weather CloudWeather Cloud

PWS WeatherPWS Weather

Awekas NetWeather data from station Patra-Ketx

WunderGroundWeather data from station Patra-Ketx




Provided and Supervised by : Moulas Andreas

 Patra, Greece - Latitude : 38°14'21" N - Longitude : 21°45'5" E - Altitude : 56m

Nearby METAR Reports

Warning: A non-numeric value encountered in /storage/content/70/1007070/meteopatras.eu/public_html/weather/metar/metarDisplay.php on line 166 Warning: A non-numeric value encountered in /storage/content/70/1007070/meteopatras.eu/public_html/weather/metar/metarDisplay.php on line 166 Warning: A non-numeric value encountered in /storage/content/70/1007070/meteopatras.eu/public_html/weather/metar/metarDisplay.php on line 166 Warning: A non-numeric value encountered in /storage/content/70/1007070/meteopatras.eu/public_html/weather/metar/metarDisplay.php on line 166 Warning: A non-numeric value encountered in /storage/content/70/1007070/meteopatras.eu/public_html/weather/metar/metarDisplay.php on line 166 Warning: A non-numeric value encountered in /storage/content/70/1007070/meteopatras.eu/public_html/weather/metar/metarDisplay.php on line 166
   
LGRX - Araxos
Updated: 22-01-2020 09:20
Clear  
Clear  
   Wind: Calm
Wind: Calm
Temperature: 4°C
Dew Point: 1°C
Humidity: 81%
Barometer: 1033 hPa
Visibility: More than 10 km
Cloud details: Clear
LGRX 220720Z 00000KT CAVOK 04/01 Q1033
LGAD - Andravida
Updated: 22-01-2020 09:20
Clear  
Clear  
   Wind: Calm
Wind: Calm
Temperature: 3°C
Dew Point: 0°C
Humidity: 81%
Barometer: 1033 hPa
Visibility: More than 10 km
Cloud details: Clear
LGAD 220720Z 00000KT CAVOK 03/M00 Q1033
LGZA - Zakinthos
Updated: 22-01-2020 08:50
Clear  
Clear  
   Wind: Calm
Wind: Calm
Temperature: 3°C
Dew Point: 1°C
Humidity: 87%
Barometer: 1032 hPa
Visibility: More than 10 km
Cloud details: Clear
LGZA 220650Z 00000KT CAVOK 03/01 Q1032
LGKF - Kefallinia
Updated: 22-01-2020 08:50
Clear  
Clear  
   Wind: NE 7.4 km/h
Wind: NE 7.4 km/h
Temperature: 6°C
Wind Chill: 4°C
Dew Point: 3°C
Humidity: 81%
Barometer: 1033 hPa
Visibility: More than 10 km
Cloud details: Clear
LGKF 220650Z 05004KT CAVOK 06/03 Q1033
LGPZ - Preveza
Updated: 22-01-2020 09:20
Few Clouds  
Few Clouds  
   Wind: NE 14.8 km/h
Wind: NE 14.8 km/h
Temperature: 7°C
Wind Chill: 4°C
Dew Point: 1°C
Humidity: 66%
Barometer: 1033 hPa
Clouds: Few Clouds
Visibility: More than 10 km
Cloud details: Few Clouds 2000 ft
LGPZ 220720Z 04008KT 9999 FEW020 07/01 Q1033
LGKL - Kalamata
Updated: 22-01-2020 09:20
Mist, Partly Cloudy  
Mist, Partly Cloudy  
   Wind: NNW 7.4 km/h
Wind: NNW 7.4 km/h
Temperature: 3°C
Wind Chill: 1°C
Dew Point: -3°C
Humidity: 65%
Barometer: 1032 hPa
Clouds: Partly Cloudy
Visibility: 8 km
Cloud details: Partly Cloudy
LGKL 220720Z 33004KT 8000 4000SE BR NSC 03/M03 Q1032
LGKR - Kerkyra
Updated: 22-01-2020 09:20
Mist, Partly Cloudy  
Mist, Partly Cloudy  
   Wind: varies 3.7 km/h
Wind: varies 3.7 km/h
Temperature: 3°C
Dew Point: 2°C
Humidity: 93%
Barometer: 1033 hPa
Clouds: Partly Cloudy
Visibility: 5 km
Cloud details: Partly Cloudy 200 ft,
Partly Cloudy 1000 ft
LGKR 220720Z VRB02KT 5000 2000S BR SCT002 SCT010 03/02 Q1033 NOSIG
LGIO - Iwannina
Updated: 22-01-2020 09:20
Clear  
Clear  
   Wind: North 3.7 km/h
Wind: North 3.7 km/h
Temperature: -4°C
Dew Point: -6°C
Humidity: 86%
Barometer: 1033 hPa
Visibility: More than 10 km
Cloud details: Clear
LGIO 220720Z 35002KT CAVOK M04/M06 Q1033
LGPZ - Leykada
Updated: 22-01-2020 09:20
Few Clouds  
Few Clouds  
   Wind: NE 14.8 km/h
Wind: NE 14.8 km/h
Temperature: 7°C
Wind Chill: 4°C
Dew Point: 1°C
Humidity: 66%
Barometer: 1033 hPa
Clouds: Few Clouds
Visibility: More than 10 km
Cloud details: Few Clouds 2000 ft
LGPZ 220720Z 04008KT 9999 FEW020 07/01 Q1033
LGEL - Elefsina
Updated: 22-01-2020 09:20
Few Clouds  
Few Clouds  
   Wind: WNW 14.8 km/h
Wind: WNW 14.8 km/h
Temperature: 10°C
Wind Chill: 8°C
Dew Point: -3°C
Humidity: 40%
Barometer: 1031 hPa
Clouds: Few Clouds
Visibility: More than 10 km
Cloud details: Few Clouds 2500 ft
LGEL 220720Z 30008KT 9999 FEW025 10/M03 Q1031
LGKC - Kythira
Updated: 21-01-2020 13:50
NOT Current
Partly Cloudy  
Partly Cloudy  
   Wind: NNE 37 km/h
Wind: NNE 37 km/h
Temperature: 9°C
Wind Chill: 5°C
Dew Point: 4°C
Humidity: 71%
Barometer: 1035 hPa
Clouds: Partly Cloudy
Visibility: More than 10 km
Cloud details: Partly Cloudy 2500 ft
LGKC 211150Z 03020KT 9999 SCT025 09/04 Q1035
LGIR - Hraklio
Updated: 22-01-2020 09:20
Partly Cloudy  
Partly Cloudy  
   Wind: NNW 24.1 km/h
Wind: NNW 24.1 km/h
Temperature: 12°C
Dew Point: 5°C
Humidity: 63%
Barometer: 1030 hPa
Clouds: Partly Cloudy
Visibility: More than 10 km
Cloud details: Partly Cloudy 2500 ft
LGIR 220720Z 34013KT 9999 SCT025 12/05 Q1030 NOSIG

Script developed by  Saratoga-weather.org Adapted for the template by  Weerstation Leuven

You find our weather info also at:

European Weather Network

WeatherCloud

Weather Underground

Hellas Meteo Network

AWEKAS

HAMweather, WeatherForYou, PWS Weather

MeteoPatras.Eu